Time;durP1;ratioP1;P1;durP2;ratioP2;P2;SDS_P1;SDS_P2;PMS_P1;PMS_P2;Temp;Humidity;BMP_temperature;BMP_pressure;BME280_temperature;BME280_humidity;BME280_pressure;Samples;Min_cycle;Max_cycle;Signal;HPM_P1;HPM_P2
2021/11/29 00:01:59;;;;;;;16.08;5.30;;;22.60;77.50;;;;;;5037695;28;20013;-72
2021/11/29 00:04:25;;;;;;;13.18;4.18;;;22.60;77.50;;;;;;5040522;28;20013;-74
2021/11/29 00:06:52;;;;;;;15.10;4.88;;;22.60;77.60;;;;;;5036741;28;20021;-74
2021/11/29 00:09:19;;;;;;;13.27;5.07;;;22.60;77.70;;;;;;5037289;28;20021;-74
2021/11/29 00:11:45;;;;;;;17.90;5.35;;;22.60;77.70;;;;;;5040347;28;20049;-73
2021/11/29 00:14:12;;;;;;;16.25;4.78;;;22.60;77.80;;;;;;5041341;28;20416;-74
2021/11/29 00:16:38;;;;;;;15.85;4.40;;;22.60;77.80;;;;;;5041257;28;20057;-74
2021/11/29 00:19:05;;;;;;;14.70;5.03;;;22.60;77.80;;;;;;5042155;28;20431;-74
2021/11/29 00:21:36;;;;;;;14.55;4.03;;;22.60;77.80;;;;;;5042889;28;20670;-73
2021/11/29 00:24:04;;;;;;;15.27;4.80;;;22.60;77.80;;;;;;5040725;28;20057;-73
2021/11/29 00:26:31;;;;;;;11.32;3.45;;;22.60;77.80;;;;;;5041483;28;20025;-73
2021/11/29 00:28:57;;;;;;;15.23;4.25;;;22.60;77.80;;;;;;5041064;28;20407;-73
2021/11/29 00:31:24;;;;;;;11.07;4.03;;;22.60;77.80;;;;;;5039978;28;20420;-73
2021/11/29 00:33:51;;;;;;;16.73;4.20;;;22.60;77.80;;;;;;5042673;28;20025;-73
2021/11/29 00:36:17;;;;;;;13.88;4.28;;;22.60;77.80;;;;;;5041086;28;20534;-73
2021/11/29 00:38:44;;;;;;;11.98;4.18;;;22.60;77.70;;;;;;5041389;28;20105;-73
2021/11/29 00:41:11;;;;;;;13.10;4.28;;;22.60;77.70;;;;;;5042037;28;20350;-73
2021/11/29 00:43:37;;;;;;;15.63;5.82;;;22.60;77.70;;;;;;5041503;28;20082;-73
2021/11/29 00:46:04;;;;;;;22.67;6.15;;;22.60;77.70;;;;;;5039921;28;20060;-73
2021/11/29 00:48:31;;;;;;;17.05;4.20;;;22.60;77.60;;;;;;5041020;28;20542;-74
2021/11/29 00:50:57;;;;;;;13.20;4.18;;;22.60;77.60;;;;;;5041378;28;20017;-74
2021/11/29 00:53:24;;;;;;;19.15;3.95;;;22.60;77.50;;;;;;5039406;28;20476;-73
2021/11/29 00:55:51;;;;;;;17.23;5.35;;;22.60;77.50;;;;;;5040654;28;20119;-73
2021/11/29 00:58:17;;;;;;;10.25;3.85;;;22.50;77.40;;;;;;5040473;28;20029;-72
2021/11/29 01:00:44;;;;;;;19.48;4.25;;;22.60;77.40;;;;;;5042338;28;20533;-73
2021/11/29 01:03:11;;;;;;;15.35;3.83;;;22.50;77.40;;;;;;5042430;28;20469;-74
2021/11/29 01:05:37;;;;;;;16.70;5.20;;;22.50;77.30;;;;;;5042278;28;20018;-74
2021/11/29 01:08:05;;;;;;;9.50;3.92;;;22.50;77.40;;;;;;5005565;28;20017;-73
2021/11/29 01:10:32;;;;;;;16.02;4.70;;;22.50;77.40;;;;;;5045151;28;20030;-73
2021/11/29 01:12:59;;;;;;;17.73;5.22;;;22.50;77.40;;;;;;5042420;28;20416;-73
2021/11/29 01:15:31;;;;;;;12.20;3.85;;;22.50;77.50;;;;;;5042378;28;20376;-74
2021/11/29 01:18:00;;;;;;;13.10;4.57;;;22.50;77.50;;;;;;5041091;28;20044;-73
2021/11/29 01:20:27;;;;;;;16.98;4.53;;;22.50;77.50;;;;;;5039423;28;20109;-73
2021/11/29 01:22:54;;;;;;;14.85;4.82;;;22.50;77.50;;;;;;5042427;28;20022;-73
2021/11/29 01:25:21;;;;;;;12.95;4.40;;;22.50;77.50;;;;;;5024092;28;20044;-73
2021/11/29 01:27:47;;;;;;;14.88;5.25;;;22.50;77.50;;;;;;5037869;28;20484;-73
2021/11/29 01:30:14;;;;;;;16.08;4.45;;;22.50;77.60;;;;;;5038634;28;20048;-73
2021/11/29 01:32:40;;;;;;;19.88;4.80;;;22.50;77.50;;;;;;5024975;28;20017;-73
2021/11/29 01:35:08;;;;;;;15.52;3.92;;;22.50;77.50;;;;;;5040745;28;20558;-74
2021/11/29 01:37:35;;;;;;;15.23;4.53;;;22.50;77.60;;;;;;5037152;28;20112;-73
2021/11/29 01:40:05;;;;;;;14.05;4.32;;;22.50;77.60;;;;;;5043830;28;20024;-74
2021/11/29 01:42:31;;;;;;;13.98;4.63;;;22.50;77.60;;;;;;5039288;28;20055;-74
2021/11/29 01:44:59;;;;;;;16.58;4.95;;;22.50;77.60;;;;;;5041418;28;20435;-74
2021/11/29 01:47:26;;;;;;;15.20;4.60;;;22.40;77.50;;;;;;5040909;28;20015;-74
2021/11/29 01:49:53;;;;;;;11.32;3.95;;;22.50;77.60;;;;;;5040211;28;20025;-74
2021/11/29 01:52:20;;;;;;;11.80;3.90;;;22.50;77.60;;;;;;5040271;28;20392;-74
2021/11/29 01:54:46;;;;;;;10.73;3.97;;;22.40;77.60;;;;;;5039097;28;20141;-75
2021/11/29 01:57:13;;;;;;;17.17;4.18;;;22.40;77.60;;;;;;5042489;28;20483;-73
2021/11/29 01:59:40;;;;;;;11.55;4.10;;;22.40;77.60;;;;;;5038696;28;20021;-73
2021/11/29 02:02:06;;;;;;;11.93;3.85;;;22.40;77.50;;;;;;5040672;28;20021;-73
2021/11/29 02:04:34;;;;;;;11.30;4.13;;;22.40;77.60;;;;;;5040571;28;20021;-73
2021/11/29 02:07:00;;;;;;;13.13;4.57;;;22.40;77.50;;;;;;5038911;28;20021;-73
2021/11/29 02:09:27;;;;;;;11.65;4.15;;;22.40;77.50;;;;;;5040561;28;20540;-73
2021/11/29 02:11:56;;;;;;;14.23;5.10;;;22.40;77.50;;;;;;5037060;28;20060;-73
2021/11/29 02:14:22;;;;;;;15.63;4.90;;;22.30;77.50;;;;;;5038869;28;20017;-73
2021/11/29 02:16:49;;;;;;;15.00;4.28;;;22.30;77.40;;;;;;5039519;28;20480;-73
2021/11/29 02:19:16;;;;;;;16.63;5.60;;;22.30;77.30;;;;;;5040484;28;20021;-73
2021/11/29 02:21:43;;;;;;;14.52;4.15;;;22.30;77.20;;;;;;5038673;28;20025;-73
2021/11/29 02:24:10;;;;;;;16.08;5.05;;;22.30;77.20;;;;;;5038737;28;20021;-73
2021/11/29 02:26:38;;;;;;;18.08;5.13;;;22.30;77.20;;;;;;5039185;28;20025;-74
2021/11/29 02:29:15;;;;;;;11.75;4.25;;;22.30;77.10;;;;;;5038657;28;20029;-73
2021/11/29 02:31:44;;;;;;;10.77;4.18;;;22.30;77.10;;;;;;5039067;28;20021;-74
2021/11/29 02:34:23;;;;;;;14.77;3.88;;;22.30;77.10;;;;;;5039077;28;20021;-73
2021/11/29 02:36:52;;;;;;;14.02;4.53;;;22.20;77.10;;;;;;5038800;28;20088;-73
2021/11/29 02:39:19;;;;;;;10.73;4.78;;;22.20;77.10;;;;;;5040643;28;20081;-73
2021/11/29 02:41:48;;;;;;;19.35;5.15;;;22.20;77.10;;;;;;5038139;28;20450;-73
2021/11/29 02:44:16;;;;;;;13.63;5.32;;;22.20;77.10;;;;;;5039373;28;20493;-73
2021/11/29 02:46:43;;;;;;;9.93;3.80;;;22.20;77.20;;;;;;5039280;28;20093;-73
2021/11/29 02:49:12;;;;;;;14.95;3.88;;;22.10;77.30;;;;;;5038796;28;20063;-73
2021/11/29 02:51:42;;;;;;;11.15;3.72;;;22.10;77.30;;;;;;5039048;28;20032;-73
2021/11/29 02:54:11;;;;;;;16.58;4.10;;;22.10;77.40;;;;;;5037742;28;20021;-73
2021/11/29 02:56:40;;;;;;;17.23;4.82;;;22.10;77.50;;;;;;5038477;28;20057;-73
2021/11/29 02:59:12;;;;;;;14.77;4.53;;;22.10;77.50;;;;;;5039589;28;20022;-74
2021/11/29 03:01:39;;;;;;;12.88;3.80;;;22.10;77.40;;;;;;5044146;28;20072;-74
2021/11/29 03:04:06;;;;;;;13.63;3.95;;;22.10;77.40;;;;;;5036259;28;20112;-73
2021/11/29 03:06:33;;;;;;;7.90;3.80;;;22.10;77.40;;;;;;5041082;28;20013;-73
2021/11/29 03:08:59;;;;;;;12.98;3.97;;;22.00;77.30;;;;;;5037485;28;20423;-74
2021/11/29 03:11:27;;;;;;;13.77;3.88;;;22.00;77.40;;;;;;5039277;28;20472;-74
2021/11/29 03:13:55;;;;;;;13.52;4.55;;;22.00;77.50;;;;;;5038924;28;20093;-74
2021/11/29 03:16:21;;;;;;;11.68;3.70;;;22.00;77.60;;;;;;5037200;28;20044;-72
2021/11/29 03:18:48;;;;;;;13.07;3.85;;;22.00;77.70;;;;;;5039433;28;20025;-73
2021/11/29 03:21:17;;;;;;;12.23;4.95;;;22.00;77.70;;;;;;5038324;28;20025;-74
2021/11/29 03:23:45;;;;;;;17.98;3.60;;;22.00;77.70;;;;;;5038393;28;20072;-73
2021/11/29 03:26:17;;;;;;;10.98;3.92;;;22.00;77.70;;;;;;5039064;28;20036;-73
2021/11/29 03:28:48;;;;;;;8.32;2.92;;;22.00;77.60;;;;;;5039341;28;20479;-73
2021/11/29 03:31:16;;;;;;;7.88;2.38;;;22.00;77.50;;;;;;5038211;28;20353;-73
2021/11/29 03:33:43;;;;;;;8.18;2.83;;;22.00;77.60;;;;;;5037366;28;20009;-73
2021/11/29 03:36:10;;;;;;;8.85;3.13;;;22.00;77.50;;;;;;5040067;28;20060;-73
2021/11/29 03:38:38;;;;;;;8.88;2.95;;;22.00;77.50;;;;;;5038409;28;20017;-73
2021/11/29 03:41:06;;;;;;;12.07;3.95;;;22.00;77.50;;;;;;5038824;28;20071;-73
2021/11/29 03:43:32;;;;;;;6.20;2.95;;;22.00;77.50;;;;;;5036984;28;20029;-73
2021/11/29 03:45:59;;;;;;;8.00;3.00;;;22.00;77.50;;;;;;5036364;28;20094;-74
2021/11/29 03:48:26;;;;;;;9.40;3.17;;;22.00;77.40;;;;;;5038220;28;20055;-72
2021/11/29 03:50:53;;;;;;;12.18;3.95;;;22.00;77.40;;;;;;5038591;28;20353;-72
2021/11/29 03:53:20;;;;;;;14.38;3.22;;;22.00;77.40;;;;;;5036883;28;20566;-73
2021/11/29 03:55:46;;;;;;;10.55;3.63;;;21.90;77.40;;;;;;5037027;28;20477;-73
2021/11/29 03:58:13;;;;;;;8.82;3.75;;;21.90;77.80;;;;;;5037868;28;20025;-73
2021/11/29 04:00:40;;;;;;;13.80;6.85;;;21.80;77.90;;;;;;5039428;28;20104;-71
2021/11/29 04:03:07;;;;;;;17.92;7.40;;;21.90;77.90;;;;;;5038388;28;20026;-73
2021/11/29 04:05:34;;;;;;;14.32;6.63;;;21.90;77.80;;;;;;5038853;28;20104;-73
2021/11/29 04:08:00;;;;;;;14.57;5.75;;;21.90;78.40;;;;;;5038292;28;20013;-73
2021/11/29 04:10:27;;;;;;;11.63;4.60;;;21.90;77.60;;;;;;5038108;28;20372;-74
2021/11/29 04:12:54;;;;;;;13.93;3.83;;;21.90;77.60;;;;;;5032243;28;20021;-75
2021/11/29 04:15:20;;;;;;;13.85;4.00;;;21.90;77.50;;;;;;5040419;28;20019;-73
2021/11/29 04:17:48;;;;;;;9.07;4.03;;;21.90;77.40;;;;;;5038334;28;20498;-72
2021/11/29 04:20:15;;;;;;;9.50;3.88;;;22.00;77.50;;;;;;5044903;28;20100;-75
2021/11/29 04:22:55;;;;;;;10.45;3.78;;;22.00;77.50;;;;;;5035358;28;20021;-73
2021/11/29 04:25:38;;;;;;;7.95;4.07;;;21.90;77.40;;;;;;5033230;28;20508;-72
2021/11/29 04:28:14;;;;;;;11.13;5.30;;;22.00;77.50;;;;;;5037266;28;20037;-71
2021/11/29 04:30:40;;;;;;;21.92;8.43;;;22.00;77.50;;;;;;5037094;28;20024;-74
2021/11/29 04:33:07;;;;;;;18.30;7.70;;;22.00;77.50;;;;;;5041369;28;20025;-72
2021/11/29 04:35:33;;;;;;;15.82;7.10;;;22.00;77.40;;;;;;5036981;28;20038;-76
2021/11/29 04:38:00;;;;;;;15.82;6.90;;;21.90;77.80;;;;;;5033273;28;20061;-73
2021/11/29 04:40:26;;;;;;;12.88;5.85;;;21.90;77.80;;;;;;5043503;28;20017;-73
2021/11/29 04:42:53;;;;;;;13.60;5.47;;;22.00;77.80;;;;;;5039166;28;20021;-73
2021/11/29 04:45:19;;;;;;;15.88;5.18;;;22.00;77.70;;;;;;5039898;28;20045;-73
2021/11/29 04:47:46;;;;;;;11.55;5.03;;;22.00;77.70;;;;;;5042562;28;20503;-73
2021/11/29 04:50:13;;;;;;;17.70;6.18;;;22.00;77.50;;;;;;5043822;28;20017;-74
2021/11/29 04:52:40;;;;;;;11.65;5.68;;;22.10;77.50;;;;;;5023617;28;20025;-74
2021/11/29 04:55:08;;;;;;;17.73;7.07;;;22.10;77.40;;;;;;5025101;28;20499;-76
2021/11/29 04:57:34;;;;;;;14.60;5.90;;;22.10;77.30;;;;;;5039779;28;21511;-77
2021/11/29 05:00:03;;;;;;;11.45;6.20;;;22.10;77.30;;;;;;5045295;28;20021;-75
2021/11/29 05:02:29;;;;;;;15.43;5.45;;;22.10;77.20;;;;;;5043599;28;20116;-76
2021/11/29 05:04:56;;;;;;;12.38;4.28;;;22.10;77.20;;;;;;5040147;28;20068;-76
2021/11/29 05:07:22;;;;;;;12.63;5.85;;;22.10;77.10;;;;;;5046477;28;20013;-76
2021/11/29 05:09:49;;;;;;;7.57;4.07;;;22.10;77.10;;;;;;5039648;28;20036;-74
2021/11/29 05:12:15;;;;;;;8.43;4.18;;;22.10;76.90;;;;;;5045216;28;20029;-74
2021/11/29 05:14:48;;;;;;;12.15;4.15;;;22.10;76.80;;;;;;5042322;28;20014;-74
2021/11/29 05:17:15;;;;;;;9.00;3.92;;;22.10;76.80;;;;;;5017027;28;20044;-74
2021/11/29 05:19:42;;;;;;;13.32;4.38;;;22.10;76.70;;;;;;5038454;28;20021;-74
2021/11/29 05:22:09;;;;;;;10.10;4.25;;;22.20;76.80;;;;;;5042914;28;20036;-74
2021/11/29 05:24:36;;;;;;;7.20;3.30;;;22.20;76.70;;;;;;5041026;28;20032;-74
2021/11/29 05:27:04;;;;;;;9.45;4.40;;;22.20;76.70;;;;;;5039402;28;20380;-74
2021/11/29 05:29:31;;;;;;;11.25;5.25;;;22.20;76.70;;;;;;5026277;28;20388;-75
2021/11/29 05:31:59;;;;;;;12.00;6.53;;;22.20;76.70;;;;;;5040194;28;20380;-74
2021/11/29 05:34:25;;;;;;;12.95;6.32;;;22.20;76.70;;;;;;5041582;28;20031;-74
2021/11/29 05:36:52;;;;;;;10.23;6.03;;;22.20;76.70;;;;;;5041711;28;20032;-74
2021/11/29 05:39:18;;;;;;;13.90;6.55;;;22.20;76.70;;;;;;5024671;28;20037;-75
2021/11/29 05:41:47;;;;;;;11.35;6.03;;;22.20;76.70;;;;;;5040279;28;20026;-74
2021/11/29 05:44:22;;;;;;;14.30;8.85;;;22.30;76.70;;;;;;5032285;28;20041;-74
2021/11/29 05:46:49;;;;;;;14.75;7.75;;;22.30;76.70;;;;;;5036165;28;20477;-75
2021/11/29 05:49:15;;;;;;;17.90;7.45;;;22.30;76.70;;;;;;5043585;28;20024;-75
2021/11/29 05:51:42;;;;;;;14.07;7.63;;;22.30;76.50;;;;;;5044657;28;20083;-74
2021/11/29 05:54:09;;;;;;;14.65;8.05;;;22.30;76.40;;;;;;5039269;28;20468;-75
2021/11/29 05:56:38;;;;;;;12.23;5.70;;;22.30;76.30;;;;;;5037192;28;20032;-74
2021/11/29 05:59:07;;;;;;;10.85;4.60;;;22.30;76.30;;;;;;5039489;28;20492;-74
2021/11/29 06:01:51;;;;;;;12.27;6.35;;;22.30;76.20;;;;;;5042615;28;20392;-74
2021/11/29 06:04:23;;;;;;;12.32;4.82;;;22.30;76.00;;;;;;5034432;28;20030;-75
2021/11/29 06:06:51;;;;;;;11.55;4.63;;;22.40;76.00;;;;;;5039393;28;20491;-75
2021/11/29 06:09:18;;;;;;;18.55;6.20;;;22.40;76.00;;;;;;5043266;28;20153;-74
2021/11/29 06:11:45;;;;;;;9.73;5.90;;;22.40;75.90;;;;;;5042881;28;20025;-75
2021/11/29 06:14:11;;;;;;;9.57;6.03;;;22.40;76.00;;;;;;5040207;28;20107;-73
2021/11/29 06:16:38;;;;;;;9.23;4.95;;;22.40;76.00;;;;;;5039474;28;20108;-74
2021/11/29 06:19:04;;;;;;;9.70;4.57;;;22.50;76.10;;;;;;5038702;28;20021;-74
2021/11/29 06:21:31;;;;;;;10.88;4.20;;;22.50;76.00;;;;;;5040127;28;20028;-74
2021/11/29 06:23:57;;;;;;;11.30;4.50;;;22.50;75.90;;;;;;5038433;28;20017;-73
2021/11/29 06:26:24;;;;;;;11.82;3.60;;;22.50;75.80;;;;;;5038596;28;20059;-74
2021/11/29 06:28:51;;;;;;;11.00;3.95;;;22.50;75.80;;;;;;5040844;28;20604;-74
2021/11/29 06:31:17;;;;;;;9.38;4.00;;;22.50;75.70;;;;;;5039528;28;20565;-74
2021/11/29 06:33:44;;;;;;;11.50;4.00;;;22.50;75.70;;;;;;5039292;28;20025;-74
2021/11/29 06:36:10;;;;;;;10.82;3.13;;;22.50;75.50;;;;;;5039276;28;20029;-74
2021/11/29 06:38:38;;;;;;;10.15;3.10;;;22.60;75.50;;;;;;5039141;28;20017;-74
2021/11/29 06:41:05;;;;;;;11.50;3.35;;;22.60;75.40;;;;;;5035544;28;20112;-74
2021/11/29 06:43:31;;;;;;;11.25;3.00;;;22.60;75.30;;;;;;5039633;28;20016;-74
2021/11/29 06:45:58;;;;;;;13.63;3.60;;;22.70;75.10;;;;;;5042765;28;20045;-74
2021/11/29 06:48:25;;;;;;;9.80;2.90;;;22.70;74.90;;;;;;5037333;28;20018;-74
2021/11/29 06:50:53;;;;;;;8.75;2.15;;;22.70;74.70;;;;;;5040106;28;20026;-74
2021/11/29 06:53:21;;;;;;;9.00;2.85;;;22.70;74.60;;;;;;5034863;28;20026;-75
2021/11/29 06:55:48;;;;;;;12.75;2.90;;;22.70;74.40;;;;;;5039472;28;20029;-75
2021/11/29 06:58:15;;;;;;;11.65;2.58;;;22.80;74.20;;;;;;5038049;28;20137;-75
2021/11/29 07:00:42;;;;;;;10.15;3.63;;;22.80;73.90;;;;;;5038701;28;20017;-75
2021/11/29 07:03:09;;;;;;;9.02;2.92;;;22.80;73.60;;;;;;5039194;28;20100;-75
2021/11/29 07:05:35;;;;;;;10.80;3.53;;;22.90;73.30;;;;;;5030027;28;20053;-74
2021/11/29 07:08:02;;;;;;;9.43;2.97;;;22.90;73.00;;;;;;5040248;28;20410;-74
2021/11/29 07:10:29;;;;;;;8.70;2.70;;;22.90;72.90;;;;;;5038504;28;20104;-75
2021/11/29 07:12:56;;;;;;;10.68;2.58;;;22.90;72.80;;;;;;5035097;28;20683;-75
2021/11/29 07:15:25;;;;;;;11.93;2.63;;;22.90;72.40;;;;;;5036762;28;20009;-75
2021/11/29 07:17:52;;;;;;;16.15;3.53;;;22.90;72.10;;;;;;5038030;28;20039;-75
2021/11/29 07:20:19;;;;;;;8.63;2.72;;;22.90;72.00;;;;;;5038163;28;20032;-75
2021/11/29 07:22:46;;;;;;;12.90;2.67;;;22.90;71.80;;;;;;5038576;28;20024;-75
2021/11/29 07:25:13;;;;;;;11.13;2.60;;;22.90;71.70;;;;;;5039055;28;20028;-75
2021/11/29 07:27:39;;;;;;;8.73;3.33;;;22.90;71.60;;;;;;5036140;28;20022;-74
2021/11/29 07:30:08;;;;;;;12.13;2.70;;;23.00;71.50;;;;;;5037953;28;20017;-75
2021/11/29 07:32:34;;;;;;;9.55;3.03;;;23.00;71.00;;;;;;5041594;28;20021;-75
2021/11/29 07:35:01;;;;;;;10.15;3.22;;;23.00;70.30;;;;;;5037347;28;20024;-74
2021/11/29 07:37:29;;;;;;;7.07;2.40;;;23.00;69.50;;;;;;5037906;28;20041;-76
2021/11/29 07:39:56;;;;;;;4.45;2.20;;;23.00;69.00;;;;;;5037007;28;20017;-75
2021/11/29 07:42:22;;;;;;;9.57;2.60;;;23.00;68.50;;;;;;5040602;28;20023;-75
2021/11/29 07:44:49;;;;;;;9.57;3.25;;;23.00;68.10;;;;;;5036465;28;20424;-76
2021/11/29 07:47:16;;;;;;;7.40;2.25;;;23.00;67.80;;;;;;5018895;28;20087;-75
2021/11/29 07:49:42;;;;;;;7.82;2.40;;;23.00;67.70;;;;;;5038437;28;20018;-76
2021/11/29 07:52:09;;;;;;;11.77;2.88;;;23.10;67.70;;;;;;5039331;28;20047;-75
2021/11/29 07:54:36;;;;;;;8.85;2.42;;;23.20;67.30;;;;;;5038697;28;20024;-75
2021/11/29 07:57:03;;;;;;;10.02;2.60;;;23.20;66.70;;;;;;5035134;28;20033;-76
2021/11/29 07:59:29;;;;;;;11.73;3.30;;;23.20;66.10;;;;;;5037801;28;20509;-75
2021/11/29 08:01:58;;;;;;;12.80;3.80;;;23.30;66.00;;;;;;5038199;28;20117;-76
2021/11/29 08:04:25;;;;;;;9.77;2.95;;;23.30;65.80;;;;;;5036392;28;20026;-76
2021/11/29 08:06:52;;;;;;;10.30;3.17;;;23.40;65.60;;;;;;5038299;28;20024;-75
2021/11/29 08:09:19;;;;;;;9.60;2.42;;;23.40;64.70;;;;;;5036771;28;20025;-76
2021/11/29 08:11:46;;;;;;;11.73;3.05;;;23.50;64.30;;;;;;5036055;28;20021;-76
2021/11/29 08:14:12;;;;;;;9.20;3.85;;;23.50;64.00;;;;;;5035550;28;20002;-75
2021/11/29 08:16:39;;;;;;;8.55;2.58;;;23.60;63.80;;;;;;5039517;28;20053;-75
2021/11/29 08:19:05;;;;;;;6.55;2.05;;;23.60;63.40;;;;;;5038025;28;20079;-75
2021/11/29 08:21:32;;;;;;;7.68;2.20;;;23.60;62.50;;;;;;5038891;28;20091;-75
2021/11/29 08:23:58;;;;;;;8.13;2.45;;;23.60;62.00;;;;;;5036459;28;20676;-75
2021/11/29 08:26:29;;;;;;;8.95;2.33;;;23.70;61.40;;;;;;5042769;28;20388;-75
2021/11/29 08:28:55;;;;;;;8.25;2.20;;;23.70;60.60;;;;;;5028505;28;20029;-75
2021/11/29 08:31:22;;;;;;;7.70;2.40;;;23.80;60.50;;;;;;5036090;28;20071;-75
2021/11/29 08:33:49;;;;;;;10.27;2.47;;;23.80;60.30;;;;;;5040861;28;20108;-75
2021/11/29 08:36:15;;;;;;;7.13;1.98;;;23.80;60.00;;;;;;5029009;28;20037;-74
2021/11/29 08:38:42;;;;;;;6.05;2.42;;;23.80;59.90;;;;;;5043196;28;20048;-75
2021/11/29 08:41:08;;;;;;;9.95;2.42;;;23.90;60.10;;;;;;5040004;28;20025;-75
2021/11/29 08:43:38;;;;;;;4.53;1.77;;;23.90;60.50;;;;;;5041689;28;20160;-75
2021/11/29 08:46:05;;;;;;;9.00;2.35;;;24.00;59.70;;;;;;5042359;28;20052;-75
2021/11/29 08:48:31;;;;;;;10.38;2.80;;;24.00;59.40;;;;;;5043233;28;20025;-75
2021/11/29 08:50:58;;;;;;;9.30;3.10;;;24.00;59.00;;;;;;5030712;28;20383;-74
2021/11/29 08:53:27;;;;;;;10.80;3.13;;;24.00;58.80;;;;;;5041503;28;20021;-75
2021/11/29 08:55:54;;;;;;;9.30;3.60;;;24.10;58.80;;;;;;5040883;28;20029;-75
2021/11/29 08:58:21;;;;;;;9.25;2.65;;;24.10;58.80;;;;;;5040866;28;20025;-75
2021/11/29 09:00:52;;;;;;;6.55;2.72;;;24.10;58.70;;;;;;5042225;28;20015;-75
2021/11/29 09:03:19;;;;;;;9.68;2.20;;;24.20;58.80;;;;;;5037523;28;20029;-75
2021/11/29 09:05:47;;;;;;;11.00;3.55;;;24.10;58.50;;;;;;5041956;28;20143;-75
2021/11/29 09:08:14;;;;;;;8.15;2.72;;;24.20;58.40;;;;;;5039428;28;20018;-75
2021/11/29 09:10:44;;;;;;;8.02;2.53;;;24.20;58.30;;;;;;5041208;28;20009;-75
2021/11/29 09:13:10;;;;;;;11.75;2.85;;;24.20;58.60;;;;;;5040750;28;20021;-75
2021/11/29 09:15:38;;;;;;;8.27;2.35;;;24.30;58.90;;;;;;5043760;28;20108;-75
2021/11/29 09:18:05;;;;;;;11.02;3.03;;;24.30;58.60;;;;;;5041543;28;20033;-75
2021/11/29 09:20:32;;;;;;;11.57;3.90;;;24.40;58.50;;;;;;5042339;28;20160;-75
2021/11/29 09:22:58;;;;;;;7.95;2.30;;;24.40;58.30;;;;;;5042633;28;20483;-75
2021/11/29 09:25:26;;;;;;;7.75;2.20;;;24.40;58.20;;;;;;5043009;28;20621;-76
2021/11/29 09:27:53;;;;;;;10.13;2.63;;;24.40;58.20;;;;;;5041841;28;20033;-75
2021/11/29 09:30:20;;;;;;;9.15;3.33;;;24.40;58.40;;;;;;5041979;28;20068;-75
2021/11/29 09:32:47;;;;;;;13.00;2.85;;;24.50;58.40;;;;;;5039744;28;20027;-76
2021/11/29 09:35:16;;;;;;;7.85;3.33;;;24.60;58.80;;;;;;5040232;28;20025;-75
2021/11/29 09:37:43;;;;;;;11.30;3.00;;;24.60;58.70;;;;;;5039452;28;20523;-75
2021/11/29 09:40:17;;;;;;;9.07;2.80;;;24.60;58.90;;;;;;5041132;28;20014;-75
2021/11/29 09:42:44;;;;;;;8.00;2.55;;;24.70;58.80;;;;;;5039061;28;20136;-76
2021/11/29 09:45:12;;;;;;;14.60;4.88;;;24.70;58.70;;;;;;5040427;28;20037;-75
2021/11/29 09:47:39;;;;;;;7.88;2.38;;;24.80;58.70;;;;;;5044645;28;20101;-76
2021/11/29 09:50:07;;;;;;;7.63;2.80;;;24.80;58.50;;;;;;5040299;28;20412;-75
2021/11/29 09:52:33;;;;;;;8.48;2.17;;;24.90;58.70;;;;;;5041008;28;20024;-75
2021/11/29 09:55:00;;;;;;;10.88;2.95;;;24.90;58.60;;;;;;5038940;28;20022;-76
2021/11/29 09:57:27;;;;;;;9.60;3.38;;;24.90;58.50;;;;;;5041303;28;20033;-76
2021/11/29 09:59:53;;;;;;;10.18;3.15;;;25.00;58.40;;;;;;5040512;28;20014;-75
2021/11/29 10:02:20;;;;;;;8.40;2.42;;;24.90;58.30;;;;;;5038497;28;20026;-76
2021/11/29 10:04:48;;;;;;;8.30;2.85;;;25.00;58.40;;;;;;5039494;28;20028;-75
2021/11/29 10:07:38;;;;;;;6.93;2.45;;;25.00;58.40;;;;;;5039076;28;20017;-76
2021/11/29 10:10:28;;;;;;;12.68;3.03;;;25.00;58.50;;;;;;5040894;28;20029;-76
2021/11/29 10:13:03;;;;;;;9.82;2.00;;;25.00;58.70;;;;;;5039397;28;20028;-76
2021/11/29 10:15:41;;;;;;;10.02;3.05;;;25.00;58.90;;;;;;5037765;28;20013;-76
2021/11/29 10:18:26;;;;;;;10.82;3.10;;;25.00;59.20;;;;;;5039590;28;20963;-75
2021/11/29 10:21:07;;;;;;;12.00;3.35;;;25.10;59.50;;;;;;5038547;28;20407;-76
2021/11/29 10:23:37;;;;;;;10.48;3.15;;;25.20;59.60;;;;;;5040869;28;20020;-76
2021/11/29 10:26:10;;;;;;;11.70;3.47;;;25.10;59.60;;;;;;5042024;28;20557;-76
2021/11/29 10:28:47;;;;;;;11.50;3.17;;;25.20;59.70;;;;;;5039713;28;20405;-76
2021/11/29 10:31:50;;;;;;;14.57;3.20;;;25.20;59.60;;;;;;5039137;28;20025;-76
2021/11/29 10:34:19;;;;;;;9.73;3.28;;;25.20;59.40;;;;;;5038996;28;20032;-76
2021/11/29 10:36:49;;;;;;;8.35;3.50;;;25.20;59.40;;;;;;5030897;28;20384;-76
2021/11/29 10:39:29;;;;;;;9.10;3.47;;;25.30;59.50;;;;;;5038097;28;20384;-76
2021/11/29 10:41:59;;;;;;;11.35;3.42;;;25.30;59.60;;;;;;5038098;28;20112;-76
2021/11/29 10:44:29;;;;;;;9.57;2.92;;;25.30;59.60;;;;;;5038691;28;20510;-76
2021/11/29 10:47:02;;;;;;;8.90;3.25;;;25.30;59.50;;;;;;5038389;28;20483;-76
2021/11/29 10:49:31;;;;;;;10.90;3.03;;;25.40;59.30;;;;;;5039478;28;20028;-76
2021/11/29 10:52:00;;;;;;;10.75;3.17;;;25.40;59.00;;;;;;5039045;28;20373;-76
2021/11/29 10:54:30;;;;;;;13.70;2.85;;;25.50;58.10;;;;;;5038242;28;20031;-76
2021/11/29 10:56:57;;;;;;;8.50;3.53;;;25.50;58.00;;;;;;5041069;28;20029;-77
2021/11/29 10:59:26;;;;;;;8.45;2.60;;;25.50;57.70;;;;;;5039687;28;20022;-76
2021/11/29 11:01:56;;;;;;;11.02;3.13;;;25.60;58.00;;;;;;5039019;28;20025;-76
2021/11/29 11:04:25;;;;;;;12.40;3.40;;;25.60;58.20;;;;;;5038226;28;20470;-76
2021/11/29 11:06:57;;;;;;;15.25;3.55;;;25.60;58.30;;;;;;5026306;28;20028;-76
2021/11/29 11:09:28;;;;;;;11.73;4.40;;;25.60;58.50;;;;;;5040000;28;20387;-76
2021/11/29 11:12:06;;;;;;;11.18;3.13;;;25.60;58.70;;;;;;5037260;28;20022;-76
2021/11/29 11:14:33;;;;;;;12.50;4.63;;;25.60;59.00;;;;;;5040856;28;20013;-76
2021/11/29 11:17:01;;;;;;;17.05;3.75;;;25.60;59.30;;;;;;5039296;28;20036;-76
2021/11/29 11:19:47;;;;;;;19.60;4.45;;;25.60;59.70;;;;;;5038266;28;20522;-76
2021/11/29 11:22:16;;;;;;;12.93;4.57;;;25.60;59.90;;;;;;5038132;28;20029;-76
2021/11/29 11:24:48;;;;;;;9.88;3.20;;;25.60;60.10;;;;;;5021039;28;20018;-76
2021/11/29 11:27:15;;;;;;;10.98;3.88;;;25.70;60.20;;;;;;5040901;28;20614;-76
2021/11/29 11:29:43;;;;;;;12.80;3.92;;;25.70;60.40;;;;;;5037096;28;20013;-76
2021/11/29 11:32:14;;;;;;;10.45;3.22;;;25.70;60.40;;;;;;5038319;28;20530;-75
2021/11/29 11:34:44;;;;;;;12.18;2.92;;;25.70;60.60;;;;;;5037794;28;21232;-75
2021/11/29 11:37:12;;;;;;;8.63;2.97;;;25.80;60.60;;;;;;5037318;28;20033;-76
2021/11/29 11:39:39;;;;;;;10.23;4.30;;;25.80;60.40;;;;;;5038032;28;20052;-75
2021/11/29 11:42:06;;;;;;;17.20;3.88;;;25.80;60.30;;;;;;5037843;28;20029;-75
2021/11/29 11:44:34;;;;;;;11.23;3.05;;;25.90;60.50;;;;;;5037502;28;20043;-75
2021/11/29 11:47:01;;;;;;;11.27;3.50;;;25.90;60.60;;;;;;5035364;28;20424;-75
2021/11/29 11:49:28;;;;;;;14.35;3.83;;;25.90;60.90;;;;;;5038678;28;20010;-76
2021/11/29 11:51:55;;;;;;;15.20;4.47;;;25.90;61.10;;;;;;5039181;28;20078;-76
2021/11/29 11:54:22;;;;;;;10.32;3.45;;;25.90;61.40;;;;;;5037005;28;20021;-76
2021/11/29 11:56:48;;;;;;;11.77;4.45;;;25.90;61.30;;;;;;5038545;28;20037;-75
2021/11/29 11:59:18;;;;;;;13.65;4.20;;;25.90;61.60;;;;;;5038486;28;20025;-75
2021/11/29 12:01:48;;;;;;;12.85;4.85;;;25.90;61.50;;;;;;5037769;28;20104;-76
2021/11/29 12:04:17;;;;;;;13.10;3.85;;;25.90;61.40;;;;;;5038131;28;20021;-75
2021/11/29 12:06:48;;;;;;;16.30;4.70;;;25.90;61.50;;;;;;5037655;28;20022;-75
2021/11/29 12:09:15;;;;;;;10.85;3.85;;;25.90;61.70;;;;;;5043129;28;20025;-76
2021/11/29 12:11:46;;;;;;;13.13;4.15;;;25.90;61.60;;;;;;5042801;28;20025;-75
2021/11/29 12:14:18;;;;;;;13.60;4.00;;;25.90;61.50;;;;;;5041465;28;20032;-75
2021/11/29 12:16:59;;;;;;;10.85;3.38;;;25.90;61.20;;;;;;5039355;28;20068;-76
2021/11/29 12:19:45;;;;;;;9.88;3.22;;;25.90;61.00;;;;;;5043340;28;20029;-76
2021/11/29 12:22:20;;;;;;;12.45;4.47;;;26.00;60.80;;;;;;5041347;28;20029;-75
2021/11/29 12:24:55;;;;;;;13.43;4.63;;;26.00;60.60;;;;;;5043374;28;20420;-76
2021/11/29 12:27:21;;;;;;;10.85;2.97;;;26.00;60.30;;;;;;5041668;28;20029;-75
2021/11/29 12:29:51;;;;;;;14.88;3.80;;;26.00;59.40;;;;;;5040966;28;20018;-75
2021/11/29 12:32:21;;;;;;;5.60;2.63;;;26.00;58.80;;;;;;5042930;28;20021;-75
2021/11/29 12:34:59;;;;;;;8.35;2.85;;;26.00;58.70;;;;;;5042228;28;20059;-75
2021/11/29 12:37:30;;;;;;;9.07;3.10;;;26.00;58.10;;;;;;5040651;28;20026;-75
2021/11/29 12:40:18;;;;;;;13.20;2.90;;;26.10;57.80;;;;;;5043362;28;20492;-75
2021/11/29 12:42:46;;;;;;;8.80;3.17;;;26.10;58.00;;;;;;5040273;28;20391;-74
2021/11/29 12:45:14;;;;;;;14.90;3.80;;;26.20;58.50;;;;;;5041805;28;20219;-75
2021/11/29 12:47:45;;;;;;;12.30;3.67;;;26.20;59.00;;;;;;5040249;28;20025;-75